sensor_id;sensor_type;location;lat;lon;timestamp;P1;durP1;ratioP1;P2;durP2;ratioP2
20997;SDS011;10657;51.276;6.390;2022-09-09T00:00:56;2.65;;;0.60;;
20997;SDS011;10657;51.276;6.390;2022-09-09T00:03:27;4.00;;;0.93;;
20997;SDS011;10657;51.276;6.390;2022-09-09T00:11:13;2.97;;;0.70;;
20997;SDS011;10657;51.276;6.390;2022-09-09T00:13:52;3.97;;;0.73;;
20997;SDS011;10657;51.276;6.390;2022-09-09T00:16:21;3.80;;;0.60;;
20997;SDS011;10657;51.276;6.390;2022-09-09T00:21:21;1.65;;;0.45;;
20997;SDS011;10657;51.276;6.390;2022-09-09T00:23:55;1.50;;;0.60;;
20997;SDS011;10657;51.276;6.390;2022-09-09T00:26:33;5.25;;;0.60;;
20997;SDS011;10657;51.276;6.390;2022-09-09T00:31:30;1.85;;;0.60;;
20997;SDS011;10657;51.276;6.390;2022-09-09T00:34:19;2.63;;;0.80;;
20997;SDS011;10657;51.276;6.390;2022-09-09T00:36:48;4.53;;;0.80;;
20997;SDS011;10657;51.276;6.390;2022-09-09T00:39:23;5.18;;;1.00;;
20997;SDS011;10657;51.276;6.390;2022-09-09T00:55:01;4.60;;;1.10;;
20997;SDS011;10657;51.276;6.390;2022-09-09T00:57:34;2.33;;;0.80;;
20997;SDS011;10657;51.276;6.390;2022-09-09T01:05:21;2.50;;;1.10;;
20997;SDS011;10657;51.276;6.390;2022-09-09T01:07:52;3.78;;;0.90;;
20997;SDS011;10657;51.276;6.390;2022-09-09T01:10:47;2.78;;;1.00;;
20997;SDS011;10657;51.276;6.390;2022-09-09T01:13:19;3.63;;;1.17;;
20997;SDS011;10657;51.276;6.390;2022-09-09T01:15:49;4.75;;;1.10;;
20997;SDS011;10657;51.276;6.390;2022-09-09T01:18:26;2.83;;;1.00;;
20997;SDS011;10657;51.276;6.390;2022-09-09T01:26:26;4.10;;;1.00;;
20997;SDS011;10657;51.276;6.390;2022-09-09T01:28:54;4.95;;;1.23;;
20997;SDS011;10657;51.276;6.390;2022-09-09T01:31:38;4.53;;;1.20;;
20997;SDS011;10657;51.276;6.390;2022-09-09T01:34:16;4.93;;;1.10;;
20997;SDS011;10657;51.276;6.390;2022-09-09T01:36:44;5.15;;;1.20;;
20997;SDS011;10657;51.276;6.390;2022-09-09T01:39:13;3.90;;;1.25;;
20997;SDS011;10657;51.276;6.390;2022-09-09T01:41:40;4.10;;;1.50;;
20997;SDS011;10657;51.276;6.390;2022-09-09T01:44:07;6.78;;;1.30;;
20997;SDS011;10657;51.276;6.390;2022-09-09T01:46:35;4.47;;;1.58;;
20997;SDS011;10657;51.276;6.390;2022-09-09T01:49:02;3.50;;;1.40;;
20997;SDS011;10657;51.276;6.390;2022-09-09T01:51:30;4.22;;;1.60;;
20997;SDS011;10657;51.276;6.390;2022-09-09T01:53:57;4.88;;;1.48;;
20997;SDS011;10657;51.276;6.390;2022-09-09T01:59:02;5.95;;;1.50;;
20997;SDS011;10657;51.276;6.390;2022-09-09T02:04:15;2.47;;;1.10;;
20997;SDS011;10657;51.276;6.390;2022-09-09T02:06:43;5.28;;;1.70;;
20997;SDS011;10657;51.276;6.390;2022-09-09T02:09:12;5.43;;;1.60;;
20997;SDS011;10657;51.276;6.390;2022-09-09T02:11:39;4.82;;;1.30;;
20997;SDS011;10657;51.276;6.390;2022-09-09T02:14:10;4.88;;;1.60;;
20997;SDS011;10657;51.276;6.390;2022-09-09T02:16:40;4.68;;;1.48;;
20997;SDS011;10657;51.276;6.390;2022-09-09T02:21:38;6.63;;;1.60;;
20997;SDS011;10657;51.276;6.390;2022-09-09T02:24:06;5.57;;;1.50;;
20997;SDS011;10657;51.276;6.390;2022-09-09T02:26:39;7.00;;;1.50;;
20997;SDS011;10657;51.276;6.390;2022-09-09T02:29:08;3.25;;;1.10;;
20997;SDS011;10657;51.276;6.390;2022-09-09T02:31:36;7.45;;;1.20;;
20997;SDS011;10657;51.276;6.390;2022-09-09T02:34:03;6.97;;;1.48;;
20997;SDS011;10657;51.276;6.390;2022-09-09T02:36:32;9.20;;;1.20;;
20997;SDS011;10657;51.276;6.390;2022-09-09T02:39:01;5.50;;;0.95;;
20997;SDS011;10657;51.276;6.390;2022-09-09T02:41:33;3.72;;;0.90;;
20997;SDS011;10657;51.276;6.390;2022-09-09T02:44:00;5.30;;;1.00;;
20997;SDS011;10657;51.276;6.390;2022-09-09T02:49:36;3.67;;;1.08;;
20997;SDS011;10657;51.276;6.390;2022-09-09T02:52:08;7.53;;;1.00;;
20997;SDS011;10657;51.276;6.390;2022-09-09T02:54:41;3.08;;;0.88;;
20997;SDS011;10657;51.276;6.390;2022-09-09T02:57:14;6.20;;;1.05;;
20997;SDS011;10657;51.276;6.390;2022-09-09T02:59:43;5.53;;;1.05;;
20997;SDS011;10657;51.276;6.390;2022-09-09T03:02:10;6.75;;;1.33;;
20997;SDS011;10657;51.276;6.390;2022-09-09T03:04:39;3.70;;;1.10;;
20997;SDS011;10657;51.276;6.390;2022-09-09T03:07:09;4.53;;;1.30;;
20997;SDS011;10657;51.276;6.390;2022-09-09T03:09:36;5.82;;;1.58;;
20997;SDS011;10657;51.276;6.390;2022-09-09T03:12:03;3.95;;;1.10;;
20997;SDS011;10657;51.276;6.390;2022-09-09T03:14:30;7.07;;;1.40;;
20997;SDS011;10657;51.276;6.390;2022-09-09T03:16:57;3.33;;;1.30;;
20997;SDS011;10657;51.276;6.390;2022-09-09T03:19:26;9.93;;;1.60;;
20997;SDS011;10657;51.276;6.390;2022-09-09T03:21:53;4.40;;;1.40;;
20997;SDS011;10657;51.276;6.390;2022-09-09T03:24:20;4.93;;;1.40;;
20997;SDS011;10657;51.276;6.390;2022-09-09T03:26:48;4.32;;;1.40;;
20997;SDS011;10657;51.276;6.390;2022-09-09T03:29:16;4.07;;;1.50;;
20997;SDS011;10657;51.276;6.390;2022-09-09T03:31:44;4.47;;;1.40;;
20997;SDS011;10657;51.276;6.390;2022-09-09T03:34:12;3.90;;;1.35;;
20997;SDS011;10657;51.276;6.390;2022-09-09T03:36:39;4.68;;;1.63;;
20997;SDS011;10657;51.276;6.390;2022-09-09T03:39:07;3.95;;;1.27;;
20997;SDS011;10657;51.276;6.390;2022-09-09T03:41:34;4.65;;;1.45;;
20997;SDS011;10657;51.276;6.390;2022-09-09T03:44:03;6.10;;;1.40;;
20997;SDS011;10657;51.276;6.390;2022-09-09T03:46:30;7.68;;;1.65;;
20997;SDS011;10657;51.276;6.390;2022-09-09T03:48:58;9.00;;;1.95;;
20997;SDS011;10657;51.276;6.390;2022-09-09T03:51:25;4.75;;;1.70;;
20997;SDS011;10657;51.276;6.390;2022-09-09T03:53:52;5.68;;;1.80;;
20997;SDS011;10657;51.276;6.390;2022-09-09T03:56:21;5.82;;;1.70;;
20997;SDS011;10657;51.276;6.390;2022-09-09T03:58:48;5.25;;;1.90;;
20997;SDS011;10657;51.276;6.390;2022-09-09T04:01:15;4.85;;;1.90;;
20997;SDS011;10657;51.276;6.390;2022-09-09T04:03:44;5.38;;;1.70;;
20997;SDS011;10657;51.276;6.390;2022-09-09T04:06:11;5.88;;;1.52;;
20997;SDS011;10657;51.276;6.390;2022-09-09T04:08:40;6.78;;;1.67;;
20997;SDS011;10657;51.276;6.390;2022-09-09T04:11:07;7.47;;;1.83;;
20997;SDS011;10657;51.276;6.390;2022-09-09T04:13:36;4.55;;;1.67;;
20997;SDS011;10657;51.276;6.390;2022-09-09T04:16:06;8.02;;;1.83;;
20997;SDS011;10657;51.276;6.390;2022-09-09T04:18:34;5.25;;;1.90;;
20997;SDS011;10657;51.276;6.390;2022-09-09T04:21:01;7.35;;;2.05;;
20997;SDS011;10657;51.276;6.390;2022-09-09T04:23:29;6.72;;;2.13;;
20997;SDS011;10657;51.276;6.390;2022-09-09T04:25:57;7.22;;;1.85;;
20997;SDS011;10657;51.276;6.390;2022-09-09T04:28:25;7.38;;;2.00;;
20997;SDS011;10657;51.276;6.390;2022-09-09T04:30:52;6.63;;;2.03;;
20997;SDS011;10657;51.276;6.390;2022-09-09T04:33:20;9.90;;;2.03;;
20997;SDS011;10657;51.276;6.390;2022-09-09T04:35:47;5.10;;;1.83;;
20997;SDS011;10657;51.276;6.390;2022-09-09T04:38:16;7.07;;;1.70;;
20997;SDS011;10657;51.276;6.390;2022-09-09T04:40:43;7.00;;;1.70;;
20997;SDS011;10657;51.276;6.390;2022-09-09T04:43:11;7.78;;;2.22;;
20997;SDS011;10657;51.276;6.390;2022-09-09T04:45:40;12.32;;;2.17;;
20997;SDS011;10657;51.276;6.390;2022-09-09T04:48:07;8.32;;;1.75;;
20997;SDS011;10657;51.276;6.390;2022-09-09T04:50:35;6.15;;;1.60;;
20997;SDS011;10657;51.276;6.390;2022-09-09T04:53:03;5.85;;;1.50;;
20997;SDS011;10657;51.276;6.390;2022-09-09T04:55:31;13.95;;;1.60;;
20997;SDS011;10657;51.276;6.390;2022-09-09T04:58:02;7.70;;;1.30;;
20997;SDS011;10657;51.276;6.390;2022-09-09T05:00:29;7.50;;;1.50;;
20997;SDS011;10657;51.276;6.390;2022-09-09T05:02:56;5.47;;;1.27;;
20997;SDS011;10657;51.276;6.390;2022-09-09T05:05:23;5.80;;;1.33;;
20997;SDS011;10657;51.276;6.390;2022-09-09T05:07:51;7.22;;;1.45;;
20997;SDS011;10657;51.276;6.390;2022-09-09T05:10:18;6.93;;;1.55;;
20997;SDS011;10657;51.276;6.390;2022-09-09T05:12:51;6.05;;;1.35;;
20997;SDS011;10657;51.276;6.390;2022-09-09T05:15:19;5.68;;;1.63;;
20997;SDS011;10657;51.276;6.390;2022-09-09T05:17:47;8.25;;;1.95;;
20997;SDS011;10657;51.276;6.390;2022-09-09T05:20:14;7.55;;;1.80;;
20997;SDS011;10657;51.276;6.390;2022-09-09T05:22:42;4.85;;;1.30;;
20997;SDS011;10657;51.276;6.390;2022-09-09T05:25:09;9.25;;;2.10;;
20997;SDS011;10657;51.276;6.390;2022-09-09T05:27:37;7.82;;;1.60;;
20997;SDS011;10657;51.276;6.390;2022-09-09T05:30:04;8.25;;;2.20;;
20997;SDS011;10657;51.276;6.390;2022-09-09T05:32:31;5.60;;;1.77;;
20997;SDS011;10657;51.276;6.390;2022-09-09T05:35:00;12.20;;;2.45;;
20997;SDS011;10657;51.276;6.390;2022-09-09T05:37:27;7.70;;;2.30;;
20997;SDS011;10657;51.276;6.390;2022-09-09T05:39:56;10.43;;;2.28;;
20997;SDS011;10657;51.276;6.390;2022-09-09T05:42:24;6.88;;;2.10;;
20997;SDS011;10657;51.276;6.390;2022-09-09T05:44:51;8.68;;;2.35;;
20997;SDS011;10657;51.276;6.390;2022-09-09T05:47:20;6.50;;;2.03;;
20997;SDS011;10657;51.276;6.390;2022-09-09T05:49:47;7.95;;;2.50;;
20997;SDS011;10657;51.276;6.390;2022-09-09T05:52:15;8.43;;;2.20;;
20997;SDS011;10657;51.276;6.390;2022-09-09T05:54:42;9.18;;;2.40;;
20997;SDS011;10657;51.276;6.390;2022-09-09T05:57:09;11.50;;;2.25;;
20997;SDS011;10657;51.276;6.390;2022-09-09T05:59:36;8.23;;;2.00;;
20997;SDS011;10657;51.276;6.390;2022-09-09T06:02:04;7.40;;;1.92;;
20997;SDS011;10657;51.276;6.390;2022-09-09T06:04:31;6.28;;;1.80;;
20997;SDS011;10657;51.276;6.390;2022-09-09T06:06:58;8.88;;;1.67;;
20997;SDS011;10657;51.276;6.390;2022-09-09T06:09:25;9.07;;;1.90;;
20997;SDS011;10657;51.276;6.390;2022-09-09T06:11:52;9.13;;;1.98;;
20997;SDS011;10657;51.276;6.390;2022-09-09T06:14:20;10.77;;;2.95;;
20997;SDS011;10657;51.276;6.390;2022-09-09T06:16:47;7.43;;;2.47;;
20997;SDS011;10657;51.276;6.390;2022-09-09T06:19:15;13.20;;;2.65;;
20997;SDS011;10657;51.276;6.390;2022-09-09T06:21:42;11.07;;;2.47;;
20997;SDS011;10657;51.276;6.390;2022-09-09T06:24:10;9.90;;;2.00;;
20997;SDS011;10657;51.276;6.390;2022-09-09T06:26:40;10.43;;;2.00;;
20997;SDS011;10657;51.276;6.390;2022-09-09T06:29:07;5.47;;;1.50;;
20997;SDS011;10657;51.276;6.390;2022-09-09T06:31:35;9.68;;;2.42;;
20997;SDS011;10657;51.276;6.390;2022-09-09T06:34:06;9.40;;;1.73;;
20997;SDS011;10657;51.276;6.390;2022-09-09T06:36:37;10.93;;;2.22;;
20997;SDS011;10657;51.276;6.390;2022-09-09T06:39:04;10.73;;;2.08;;
20997;SDS011;10657;51.276;6.390;2022-09-09T06:41:39;8.75;;;1.48;;
20997;SDS011;10657;51.276;6.390;2022-09-09T06:44:07;3.20;;;0.82;;
20997;SDS011;10657;51.276;6.390;2022-09-09T06:46:34;7.53;;;1.70;;
20997;SDS011;10657;51.276;6.390;2022-09-09T06:49:01;7.53;;;1.40;;
20997;SDS011;10657;51.276;6.390;2022-09-09T06:51:29;9.20;;;1.50;;
20997;SDS011;10657;51.276;6.390;2022-09-09T06:53:58;7.88;;;1.60;;
20997;SDS011;10657;51.276;6.390;2022-09-09T06:56:38;6.60;;;1.48;;
20997;SDS011;10657;51.276;6.390;2022-09-09T06:59:08;7.55;;;1.60;;
20997;SDS011;10657;51.276;6.390;2022-09-09T07:01:36;7.97;;;2.45;;
20997;SDS011;10657;51.276;6.390;2022-09-09T07:04:04;8.10;;;1.73;;
20997;SDS011;10657;51.276;6.390;2022-09-09T07:06:34;8.15;;;1.73;;
20997;SDS011;10657;51.276;6.390;2022-09-09T07:09:03;8.13;;;1.60;;
20997;SDS011;10657;51.276;6.390;2022-09-09T07:11:31;6.75;;;1.60;;
20997;SDS011;10657;51.276;6.390;2022-09-09T07:13:59;7.35;;;1.40;;
20997;SDS011;10657;51.276;6.390;2022-09-09T07:16:26;10.77;;;1.98;;
20997;SDS011;10657;51.276;6.390;2022-09-09T07:18:53;9.43;;;1.63;;
20997;SDS011;10657;51.276;6.390;2022-09-09T07:21:25;8.45;;;1.60;;
20997;SDS011;10657;51.276;6.390;2022-09-09T07:23:52;7.70;;;1.55;;
20997;SDS011;10657;51.276;6.390;2022-09-09T07:26:21;7.78;;;1.58;;
20997;SDS011;10657;51.276;6.390;2022-09-09T07:28:49;10.32;;;1.70;;
20997;SDS011;10657;51.276;6.390;2022-09-09T07:31:21;5.68;;;1.20;;
20997;SDS011;10657;51.276;6.390;2022-09-09T07:33:48;5.47;;;1.30;;
20997;SDS011;10657;51.276;6.390;2022-09-09T07:38:43;7.60;;;1.70;;
20997;SDS011;10657;51.276;6.390;2022-09-09T07:41:16;7.20;;;1.48;;
20997;SDS011;10657;51.276;6.390;2022-09-09T07:43:44;8.73;;;1.50;;
20997;SDS011;10657;51.276;6.390;2022-09-09T07:46:17;10.23;;;1.70;;
20997;SDS011;10657;51.276;6.390;2022-09-09T07:48:49;6.15;;;1.30;;
20997;SDS011;10657;51.276;6.390;2022-09-09T07:51:23;9.15;;;1.20;;
20997;SDS011;10657;51.276;6.390;2022-09-09T07:53:52;8.52;;;1.83;;
20997;SDS011;10657;51.276;6.390;2022-09-09T07:56:19;6.78;;;1.15;;
20997;SDS011;10657;51.276;6.390;2022-09-09T07:58:49;6.13;;;1.25;;
20997;SDS011;10657;51.276;6.390;2022-09-09T08:01:18;13.38;;;2.25;;
20997;SDS011;10657;51.276;6.390;2022-09-09T08:03:46;5.63;;;1.65;;
20997;SDS011;10657;51.276;6.390;2022-09-09T08:06:19;10.48;;;1.58;;
20997;SDS011;10657;51.276;6.390;2022-09-09T08:08:49;8.10;;;1.92;;
20997;SDS011;10657;51.276;6.390;2022-09-09T08:11:17;8.48;;;1.70;;
20997;SDS011;10657;51.276;6.390;2022-09-09T08:13:44;10.73;;;1.60;;
20997;SDS011;10657;51.276;6.390;2022-09-09T08:16:18;7.00;;;1.52;;
20997;SDS011;10657;51.276;6.390;2022-09-09T08:18:48;9.65;;;1.80;;
20997;SDS011;10657;51.276;6.390;2022-09-09T08:21:16;5.78;;;1.23;;
20997;SDS011;10657;51.276;6.390;2022-09-09T08:23:44;7.50;;;1.75;;
20997;SDS011;10657;51.276;6.390;2022-09-09T08:26:13;5.35;;;1.42;;
20997;SDS011;10657;51.276;6.390;2022-09-09T08:28:41;8.93;;;1.77;;
20997;SDS011;10657;51.276;6.390;2022-09-09T08:31:09;9.57;;;1.98;;
20997;SDS011;10657;51.276;6.390;2022-09-09T08:33:37;9.10;;;1.73;;
20997;SDS011;10657;51.276;6.390;2022-09-09T08:36:05;11.52;;;1.85;;
20997;SDS011;10657;51.276;6.390;2022-09-09T08:38:33;7.53;;;1.50;;
20997;SDS011;10657;51.276;6.390;2022-09-09T08:43:47;5.13;;;1.42;;
20997;SDS011;10657;51.276;6.390;2022-09-09T08:48:56;3.33;;;1.02;;
20997;SDS011;10657;51.276;6.390;2022-09-09T08:51:28;7.50;;;1.60;;
20997;SDS011;10657;51.276;6.390;2022-09-09T08:53:57;7.05;;;1.75;;
20997;SDS011;10657;51.276;6.390;2022-09-09T08:56:26;6.60;;;1.45;;
20997;SDS011;10657;51.276;6.390;2022-09-09T08:58:55;5.90;;;1.33;;
20997;SDS011;10657;51.276;6.390;2022-09-09T09:01:39;7.38;;;1.50;;
20997;SDS011;10657;51.276;6.390;2022-09-09T09:12:10;6.55;;;1.17;;
20997;SDS011;10657;51.276;6.390;2022-09-09T09:14:40;7.60;;;1.45;;
20997;SDS011;10657;51.276;6.390;2022-09-09T09:17:11;4.47;;;1.00;;
20997;SDS011;10657;51.276;6.390;2022-09-09T09:19:39;5.65;;;1.50;;
20997;SDS011;10657;51.276;6.390;2022-09-09T09:22:20;6.68;;;1.40;;
20997;SDS011;10657;51.276;6.390;2022-09-09T09:25:01;4.68;;;0.88;;
20997;SDS011;10657;51.276;6.390;2022-09-09T09:27:32;3.75;;;0.90;;
20997;SDS011;10657;51.276;6.390;2022-09-09T09:30:00;5.95;;;1.20;;
20997;SDS011;10657;51.276;6.390;2022-09-09T09:33:01;6.43;;;1.20;;
20997;SDS011;10657;51.276;6.390;2022-09-09T09:35:29;5.68;;;1.13;;
20997;SDS011;10657;51.276;6.390;2022-09-09T09:37:56;5.15;;;1.15;;
20997;SDS011;10657;51.276;6.390;2022-09-09T09:40:54;5.80;;;1.30;;
20997;SDS011;10657;51.276;6.390;2022-09-09T09:43:33;6.97;;;1.35;;
20997;SDS011;10657;51.276;6.390;2022-09-09T09:46:03;5.68;;;1.35;;
20997;SDS011;10657;51.276;6.390;2022-09-09T09:48:43;10.05;;;1.48;;
20997;SDS011;10657;51.276;6.390;2022-09-09T09:51:13;5.97;;;1.15;;
20997;SDS011;10657;51.276;6.390;2022-09-09T09:53:42;6.55;;;1.10;;
20997;SDS011;10657;51.276;6.390;2022-09-09T09:56:10;4.13;;;0.82;;
20997;SDS011;10657;51.276;6.390;2022-09-09T10:01:21;7.05;;;1.60;;
20997;SDS011;10657;51.276;6.390;2022-09-09T10:03:51;6.50;;;1.35;;
20997;SDS011;10657;51.276;6.390;2022-09-09T10:06:32;5.32;;;1.10;;
20997;SDS011;10657;51.276;6.390;2022-09-09T10:08:59;8.98;;;1.75;;
20997;SDS011;10657;51.276;6.390;2022-09-09T10:19:21;4.78;;;1.30;;
20997;SDS011;10657;51.276;6.390;2022-09-09T10:32:25;7.05;;;1.27;;
20997;SDS011;10657;51.276;6.390;2022-09-09T10:51:00;5.70;;;1.20;;
20997;SDS011;10657;51.276;6.390;2022-09-09T10:56:18;8.25;;;1.42;;
20997;SDS011;10657;51.276;6.390;2022-09-09T11:01:21;4.85;;;1.20;;
20997;SDS011;10657;51.276;6.390;2022-09-09T11:03:54;5.80;;;0.90;;
20997;SDS011;10657;51.276;6.390;2022-09-09T11:06:22;8.93;;;1.55;;
20997;SDS011;10657;51.276;6.390;2022-09-09T11:08:52;7.15;;;1.00;;
20997;SDS011;10657;51.276;6.390;2022-09-09T11:11:27;8.32;;;1.40;;
20997;SDS011;10657;51.276;6.390;2022-09-09T11:14:04;5.38;;;1.15;;
20997;SDS011;10657;51.276;6.390;2022-09-09T11:16:34;6.05;;;1.13;;
20997;SDS011;10657;51.276;6.390;2022-09-09T11:19:13;6.15;;;1.20;;
20997;SDS011;10657;51.276;6.390;2022-09-09T11:21:44;5.18;;;1.05;;
20997;SDS011;10657;51.276;6.390;2022-09-09T11:27:07;3.22;;;0.80;;
20997;SDS011;10657;51.276;6.390;2022-09-09T11:32:19;4.80;;;0.80;;
20997;SDS011;10657;51.276;6.390;2022-09-09T11:35:07;5.03;;;0.90;;
20997;SDS011;10657;51.276;6.390;2022-09-09T11:40:20;4.75;;;1.00;;
20997;SDS011;10657;51.276;6.390;2022-09-09T11:42:48;4.95;;;0.93;;
20997;SDS011;10657;51.276;6.390;2022-09-09T11:45:23;5.75;;;1.10;;
20997;SDS011;10657;51.276;6.390;2022-09-09T11:47:52;3.70;;;0.80;;
20997;SDS011;10657;51.276;6.390;2022-09-09T11:52:47;7.32;;;1.02;;
20997;SDS011;10657;51.276;6.390;2022-09-09T11:55:25;6.75;;;1.10;;
20997;SDS011;10657;51.276;6.390;2022-09-09T11:58:03;7.28;;;1.27;;
20997;SDS011;10657;51.276;6.390;2022-09-09T12:00:31;5.90;;;1.02;;
20997;SDS011;10657;51.276;6.390;2022-09-09T12:02:59;5.70;;;1.30;;
20997;SDS011;10657;51.276;6.390;2022-09-09T12:05:36;4.45;;;1.00;;
20997;SDS011;10657;51.276;6.390;2022-09-09T12:08:04;4.68;;;1.00;;
20997;SDS011;10657;51.276;6.390;2022-09-09T12:10:32;6.57;;;1.30;;
20997;SDS011;10657;51.276;6.390;2022-09-09T12:15:47;8.52;;;1.95;;
20997;SDS011;10657;51.276;6.390;2022-09-09T12:18:22;6.78;;;1.30;;
20997;SDS011;10657;51.276;6.390;2022-09-09T12:20:55;7.57;;;1.25;;
20997;SDS011;10657;51.276;6.390;2022-09-09T12:24:09;4.22;;;1.40;;
20997;SDS011;10657;51.276;6.390;2022-09-09T12:26:26;6.07;;;1.52;;
20997;SDS011;10657;51.276;6.390;2022-09-09T12:31:39;4.30;;;0.90;;
20997;SDS011;10657;51.276;6.390;2022-09-09T12:36:38;5.38;;;1.40;;
20997;SDS011;10657;51.276;6.390;2022-09-09T12:39:10;4.90;;;1.05;;
20997;SDS011;10657;51.276;6.390;2022-09-09T12:41:50;5.22;;;1.40;;
20997;SDS011;10657;51.276;6.390;2022-09-09T12:44:20;5.40;;;1.10;;
20997;SDS011;10657;51.276;6.390;2022-09-09T12:46:48;2.88;;;0.98;;
20997;SDS011;10657;51.276;6.390;2022-09-09T12:49:26;7.78;;;1.50;;
20997;SDS011;10657;51.276;6.390;2022-09-09T12:51:54;5.78;;;1.90;;
20997;SDS011;10657;51.276;6.390;2022-09-09T12:54:23;8.45;;;3.00;;
20997;SDS011;10657;51.276;6.390;2022-09-09T12:56:50;4.40;;;1.15;;
20997;SDS011;10657;51.276;6.390;2022-09-09T12:59:25;6.65;;;1.42;;
20997;SDS011;10657;51.276;6.390;2022-09-09T13:01:56;5.28;;;1.30;;
20997;SDS011;10657;51.276;6.390;2022-09-09T13:04:23;5.85;;;1.27;;
20997;SDS011;10657;51.276;6.390;2022-09-09T13:06:50;3.33;;;1.05;;
20997;SDS011;10657;51.276;6.390;2022-09-09T13:09:21;3.08;;;1.00;;
20997;SDS011;10657;51.276;6.390;2022-09-09T13:11:50;3.88;;;1.10;;
20997;SDS011;10657;51.276;6.390;2022-09-09T13:14:28;6.25;;;1.20;;
20997;SDS011;10657;51.276;6.390;2022-09-09T13:16:56;4.00;;;1.10;;
20997;SDS011;10657;51.276;6.390;2022-09-09T13:19:24;4.47;;;1.10;;
20997;SDS011;10657;51.276;6.390;2022-09-09T13:21:54;3.17;;;0.95;;
20997;SDS011;10657;51.276;6.390;2022-09-09T13:24:30;3.50;;;1.20;;
20997;SDS011;10657;51.276;6.390;2022-09-09T13:26:58;4.00;;;1.10;;
20997;SDS011;10657;51.276;6.390;2022-09-09T13:29:28;6.55;;;1.23;;
20997;SDS011;10657;51.276;6.390;2022-09-09T13:32:05;7.47;;;1.42;;
20997;SDS011;10657;51.276;6.390;2022-09-09T13:34:34;4.80;;;1.10;;
20997;SDS011;10657;51.276;6.390;2022-09-09T13:37:02;4.05;;;1.20;;
20997;SDS011;10657;51.276;6.390;2022-09-09T13:39:35;7.18;;;1.40;;
20997;SDS011;10657;51.276;6.390;2022-09-09T13:42:03;5.63;;;1.33;;
20997;SDS011;10657;51.276;6.390;2022-09-09T13:44:31;5.40;;;1.13;;
20997;SDS011;10657;51.276;6.390;2022-09-09T13:47:01;5.72;;;1.00;;
20997;SDS011;10657;51.276;6.390;2022-09-09T13:49:35;4.78;;;1.20;;
20997;SDS011;10657;51.276;6.390;2022-09-09T13:52:23;5.30;;;1.08;;
20997;SDS011;10657;51.276;6.390;2022-09-09T13:54:49;6.18;;;1.42;;
20997;SDS011;10657;51.276;6.390;2022-09-09T13:57:18;6.63;;;1.42;;
20997;SDS011;10657;51.276;6.390;2022-09-09T13:59:46;6.70;;;1.48;;
20997;SDS011;10657;51.276;6.390;2022-09-09T14:02:30;8.68;;;1.10;;
20997;SDS011;10657;51.276;6.390;2022-09-09T14:04:57;5.00;;;0.65;;
20997;SDS011;10657;51.276;6.390;2022-09-09T14:07:24;5.53;;;0.70;;
20997;SDS011;10657;51.276;6.390;2022-09-09T14:09:51;2.80;;;0.45;;
20997;SDS011;10657;51.276;6.390;2022-09-09T14:12:18;3.55;;;0.60;;
20997;SDS011;10657;51.276;6.390;2022-09-09T14:14:46;3.35;;;0.45;;
20997;SDS011;10657;51.276;6.390;2022-09-09T14:17:13;5.93;;;0.82;;
20997;SDS011;10657;51.276;6.390;2022-09-09T14:19:40;2.35;;;0.40;;
20997;SDS011;10657;51.276;6.390;2022-09-09T14:22:08;2.00;;;0.50;;
20997;SDS011;10657;51.276;6.390;2022-09-09T14:24:35;2.67;;;0.60;;
20997;SDS011;10657;51.276;6.390;2022-09-09T14:27:02;3.58;;;0.95;;
20997;SDS011;10657;51.276;6.390;2022-09-09T14:29:29;4.00;;;0.73;;
20997;SDS011;10657;51.276;6.390;2022-09-09T14:31:57;3.97;;;0.68;;
20997;SDS011;10657;51.276;6.390;2022-09-09T14:34:26;3.33;;;0.70;;
20997;SDS011;10657;51.276;6.390;2022-09-09T14:36:53;2.47;;;0.63;;
20997;SDS011;10657;51.276;6.390;2022-09-09T14:39:21;1.77;;;0.70;;
20997;SDS011;10657;51.276;6.390;2022-09-09T14:41:48;5.03;;;0.80;;
20997;SDS011;10657;51.276;6.390;2022-09-09T14:44:15;2.47;;;0.60;;
20997;SDS011;10657;51.276;6.390;2022-09-09T14:46:43;2.13;;;0.65;;
20997;SDS011;10657;51.276;6.390;2022-09-09T14:49:10;2.13;;;0.60;;
20997;SDS011;10657;51.276;6.390;2022-09-09T14:51:38;3.45;;;0.85;;
20997;SDS011;10657;51.276;6.390;2022-09-09T14:54:06;3.00;;;0.60;;
20997;SDS011;10657;51.276;6.390;2022-09-09T14:56:33;2.40;;;0.60;;
20997;SDS011;10657;51.276;6.390;2022-09-09T14:59:00;2.22;;;0.55;;
20997;SDS011;10657;51.276;6.390;2022-09-09T15:01:28;2.30;;;0.60;;
20997;SDS011;10657;51.276;6.390;2022-09-09T15:03:56;1.83;;;0.57;;
20997;SDS011;10657;51.276;6.390;2022-09-09T15:06:27;2.72;;;0.57;;
20997;SDS011;10657;51.276;6.390;2022-09-09T15:08:55;3.35;;;0.70;;
20997;SDS011;10657;51.276;6.390;2022-09-09T15:11:25;1.48;;;0.57;;
20997;SDS011;10657;51.276;6.390;2022-09-09T15:13:53;3.72;;;1.08;;
20997;SDS011;10657;51.276;6.390;2022-09-09T15:16:22;4.30;;;0.88;;
20997;SDS011;10657;51.276;6.390;2022-09-09T15:18:53;4.22;;;0.70;;
20997;SDS011;10657;51.276;6.390;2022-09-09T15:21:22;2.85;;;0.80;;
20997;SDS011;10657;51.276;6.390;2022-09-09T15:23:49;3.13;;;0.80;;
20997;SDS011;10657;51.276;6.390;2022-09-09T15:26:17;3.42;;;0.70;;
20997;SDS011;10657;51.276;6.390;2022-09-09T15:28:45;3.25;;;0.88;;
20997;SDS011;10657;51.276;6.390;2022-09-09T15:31:14;6.00;;;1.02;;
20997;SDS011;10657;51.276;6.390;2022-09-09T15:33:53;5.32;;;1.10;;
20997;SDS011;10657;51.276;6.390;2022-09-09T15:36:27;4.53;;;1.00;;
20997;SDS011;10657;51.276;6.390;2022-09-09T15:38:55;5.25;;;1.10;;
20997;SDS011;10657;51.276;6.390;2022-09-09T15:41:22;4.15;;;1.20;;
20997;SDS011;10657;51.276;6.390;2022-09-09T15:43:53;3.22;;;0.90;;
20997;SDS011;10657;51.276;6.390;2022-09-09T15:46:26;4.32;;;1.10;;
20997;SDS011;10657;51.276;6.390;2022-09-09T15:48:55;3.83;;;0.88;;
20997;SDS011;10657;51.276;6.390;2022-09-09T15:51:22;2.13;;;0.70;;
20997;SDS011;10657;51.276;6.390;2022-09-09T15:54:07;4.25;;;1.00;;
20997;SDS011;10657;51.276;6.390;2022-09-09T15:56:35;6.15;;;1.23;;
20997;SDS011;10657;51.276;6.390;2022-09-09T15:59:02;6.00;;;1.20;;
20997;SDS011;10657;51.276;6.390;2022-09-09T16:01:29;5.70;;;1.10;;
20997;SDS011;10657;51.276;6.390;2022-09-09T16:03:57;5.82;;;1.30;;
20997;SDS011;10657;51.276;6.390;2022-09-09T16:06:26;5.55;;;1.40;;
20997;SDS011;10657;51.276;6.390;2022-09-09T16:08:55;4.78;;;1.25;;
20997;SDS011;10657;51.276;6.390;2022-09-09T16:11:26;3.40;;;0.70;;
20997;SDS011;10657;51.276;6.390;2022-09-09T16:13:54;5.38;;;1.05;;
20997;SDS011;10657;51.276;6.390;2022-09-09T16:16:22;2.70;;;0.98;;
20997;SDS011;10657;51.276;6.390;2022-09-09T16:18:51;6.65;;;1.50;;
20997;SDS011;10657;51.276;6.390;2022-09-09T16:21:19;4.20;;;1.23;;
20997;SDS011;10657;51.276;6.390;2022-09-09T16:23:47;6.50;;;1.95;;
20997;SDS011;10657;51.276;6.390;2022-09-09T16:26:16;5.97;;;1.40;;
20997;SDS011;10657;51.276;6.390;2022-09-09T16:28:43;4.93;;;1.30;;
20997;SDS011;10657;51.276;6.390;2022-09-09T16:31:14;6.57;;;1.27;;
20997;SDS011;10657;51.276;6.390;2022-09-09T16:33:42;5.57;;;1.30;;
20997;SDS011;10657;51.276;6.390;2022-09-09T16:36:11;4.22;;;1.17;;
20997;SDS011;10657;51.276;6.390;2022-09-09T16:38:40;5.00;;;1.20;;
20997;SDS011;10657;51.276;6.390;2022-09-09T16:41:08;5.88;;;1.50;;
20997;SDS011;10657;51.276;6.390;2022-09-09T16:43:36;4.85;;;1.15;;
20997;SDS011;10657;51.276;6.390;2022-09-09T16:46:09;5.60;;;1.20;;
20997;SDS011;10657;51.276;6.390;2022-09-09T16:48:37;8.93;;;1.52;;
20997;SDS011;10657;51.276;6.390;2022-09-09T16:51:06;4.75;;;0.88;;
20997;SDS011;10657;51.276;6.390;2022-09-09T16:53:33;7.65;;;1.60;;
20997;SDS011;10657;51.276;6.390;2022-09-09T16:56:06;6.53;;;1.38;;
20997;SDS011;10657;51.276;6.390;2022-09-09T16:58:34;6.40;;;1.13;;
20997;SDS011;10657;51.276;6.390;2022-09-09T17:01:02;3.85;;;1.27;;
20997;SDS011;10657;51.276;6.390;2022-09-09T17:03:29;5.13;;;1.48;;
20997;SDS011;10657;51.276;6.390;2022-09-09T17:05:58;6.68;;;1.33;;